sensor_id;sensor_type;location;lat;lon;timestamp;P1;durP1;ratioP1;P2;durP2;ratioP2
20415;SDS011;10367;52.202;5.996;2022-08-01T00:01:31;25.43;;;19.03;;
20415;SDS011;10367;52.202;5.996;2022-08-01T00:04:01;19.07;;;17.40;;
20415;SDS011;10367;52.202;5.996;2022-08-01T00:06:29;20.13;;;18.17;;
20415;SDS011;10367;52.202;5.996;2022-08-01T00:08:58;19.50;;;17.47;;
20415;SDS011;10367;52.202;5.996;2022-08-01T00:11:27;18.37;;;16.73;;
20415;SDS011;10367;52.202;5.996;2022-08-01T00:13:55;21.37;;;19.07;;
20415;SDS011;10367;52.202;5.996;2022-08-01T00:16:24;18.00;;;16.50;;
20415;SDS011;10367;52.202;5.996;2022-08-01T00:18:53;19.43;;;17.67;;
20415;SDS011;10367;52.202;5.996;2022-08-01T00:21:23;20.10;;;18.33;;
20415;SDS011;10367;52.202;5.996;2022-08-01T00:23:51;16.80;;;15.40;;
20415;SDS011;10367;52.202;5.996;2022-08-01T00:26:20;18.47;;;16.90;;
20415;SDS011;10367;52.202;5.996;2022-08-01T00:28:49;19.13;;;17.30;;
20415;SDS011;10367;52.202;5.996;2022-08-01T00:31:17;18.87;;;17.30;;
20415;SDS011;10367;52.202;5.996;2022-08-01T00:33:47;19.23;;;17.67;;
20415;SDS011;10367;52.202;5.996;2022-08-01T00:36:15;18.90;;;17.13;;
20415;SDS011;10367;52.202;5.996;2022-08-01T00:38:45;19.00;;;17.13;;
20415;SDS011;10367;52.202;5.996;2022-08-01T00:41:14;17.23;;;15.70;;
20415;SDS011;10367;52.202;5.996;2022-08-01T00:43:43;18.27;;;16.70;;
20415;SDS011;10367;52.202;5.996;2022-08-01T00:46:11;20.80;;;18.63;;
20415;SDS011;10367;52.202;5.996;2022-08-01T00:48:40;19.93;;;18.00;;
20415;SDS011;10367;52.202;5.996;2022-08-01T00:51:09;18.97;;;16.97;;
20415;SDS011;10367;52.202;5.996;2022-08-01T00:53:38;19.07;;;17.37;;
20415;SDS011;10367;52.202;5.996;2022-08-01T00:56:19;20.43;;;18.40;;
20415;SDS011;10367;52.202;5.996;2022-08-01T00:58:49;19.77;;;17.87;;
20415;SDS011;10367;52.202;5.996;2022-08-01T01:01:19;19.37;;;17.63;;
20415;SDS011;10367;52.202;5.996;2022-08-01T01:03:49;19.03;;;17.23;;
20415;SDS011;10367;52.202;5.996;2022-08-01T01:06:31;18.57;;;16.93;;
20415;SDS011;10367;52.202;5.996;2022-08-01T01:09:12;18.53;;;16.97;;
20415;SDS011;10367;52.202;5.996;2022-08-01T01:11:57;25.23;;;20.97;;
20415;SDS011;10367;52.202;5.996;2022-08-01T01:14:37;20.17;;;18.23;;
20415;SDS011;10367;52.202;5.996;2022-08-01T01:17:13;19.67;;;17.93;;
20415;SDS011;10367;52.202;5.996;2022-08-01T01:20:05;20.93;;;18.77;;
20415;SDS011;10367;52.202;5.996;2022-08-01T01:22:45;19.00;;;17.33;;
20415;SDS011;10367;52.202;5.996;2022-08-01T01:25:28;21.67;;;19.37;;
20415;SDS011;10367;52.202;5.996;2022-08-01T01:28:10;22.30;;;19.90;;
20415;SDS011;10367;52.202;5.996;2022-08-01T01:30:50;22.00;;;19.70;;
20415;SDS011;10367;52.202;5.996;2022-08-01T01:33:21;26.03;;;21.30;;
20415;SDS011;10367;52.202;5.996;2022-08-01T01:35:56;23.70;;;21.07;;
20415;SDS011;10367;52.202;5.996;2022-08-01T01:38:28;20.80;;;18.50;;
20415;SDS011;10367;52.202;5.996;2022-08-01T01:41:02;19.53;;;17.60;;
20415;SDS011;10367;52.202;5.996;2022-08-01T01:43:31;22.17;;;18.73;;
20415;SDS011;10367;52.202;5.996;2022-08-01T01:46:02;23.17;;;20.17;;
20415;SDS011;10367;52.202;5.996;2022-08-01T01:48:35;21.53;;;18.77;;
20415;SDS011;10367;52.202;5.996;2022-08-01T01:51:05;22.13;;;19.77;;
20415;SDS011;10367;52.202;5.996;2022-08-01T01:53:34;21.03;;;18.90;;
20415;SDS011;10367;52.202;5.996;2022-08-01T01:56:04;20.00;;;18.07;;
20415;SDS011;10367;52.202;5.996;2022-08-01T01:58:33;20.20;;;18.30;;
20415;SDS011;10367;52.202;5.996;2022-08-01T02:01:05;18.53;;;16.83;;
20415;SDS011;10367;52.202;5.996;2022-08-01T02:03:40;24.07;;;18.97;;
20415;SDS011;10367;52.202;5.996;2022-08-01T02:06:11;18.90;;;17.13;;
20415;SDS011;10367;52.202;5.996;2022-08-01T02:08:42;20.67;;;18.50;;
20415;SDS011;10367;52.202;5.996;2022-08-01T02:11:11;20.63;;;18.53;;
20415;SDS011;10367;52.202;5.996;2022-08-01T02:13:46;20.90;;;18.87;;
20415;SDS011;10367;52.202;5.996;2022-08-01T02:16:23;16.53;;;15.33;;
20415;SDS011;10367;52.202;5.996;2022-08-01T02:18:54;18.10;;;16.53;;
20415;SDS011;10367;52.202;5.996;2022-08-01T02:21:25;19.10;;;17.33;;
20415;SDS011;10367;52.202;5.996;2022-08-01T02:23:59;19.40;;;17.43;;
20415;SDS011;10367;52.202;5.996;2022-08-01T02:26:36;19.80;;;17.83;;
20415;SDS011;10367;52.202;5.996;2022-08-01T02:29:10;19.27;;;17.33;;
20415;SDS011;10367;52.202;5.996;2022-08-01T02:31:46;18.33;;;16.80;;
20415;SDS011;10367;52.202;5.996;2022-08-01T02:34:17;25.40;;;20.07;;
20415;SDS011;10367;52.202;5.996;2022-08-01T02:36:46;17.83;;;16.30;;
20415;SDS011;10367;52.202;5.996;2022-08-01T02:39:18;17.37;;;15.77;;
20415;SDS011;10367;52.202;5.996;2022-08-01T02:41:50;19.00;;;17.10;;
20415;SDS011;10367;52.202;5.996;2022-08-01T02:44:27;17.73;;;16.23;;
20415;SDS011;10367;52.202;5.996;2022-08-01T02:47:00;21.23;;;18.47;;
20415;SDS011;10367;52.202;5.996;2022-08-01T02:49:30;20.17;;;18.23;;
20415;SDS011;10367;52.202;5.996;2022-08-01T02:52:03;20.43;;;18.30;;
20415;SDS011;10367;52.202;5.996;2022-08-01T02:54:35;19.97;;;17.97;;
20415;SDS011;10367;52.202;5.996;2022-08-01T02:57:05;19.10;;;17.10;;
20415;SDS011;10367;52.202;5.996;2022-08-01T02:59:39;19.07;;;17.27;;
20415;SDS011;10367;52.202;5.996;2022-08-01T03:02:12;19.20;;;17.27;;
20415;SDS011;10367;52.202;5.996;2022-08-01T03:04:43;22.00;;;18.60;;
20415;SDS011;10367;52.202;5.996;2022-08-01T03:07:13;19.27;;;17.23;;
20415;SDS011;10367;52.202;5.996;2022-08-01T03:09:45;17.97;;;16.37;;
20415;SDS011;10367;52.202;5.996;2022-08-01T03:12:16;20.80;;;18.67;;
20415;SDS011;10367;52.202;5.996;2022-08-01T03:14:47;18.70;;;16.77;;
20415;SDS011;10367;52.202;5.996;2022-08-01T03:17:19;19.97;;;17.90;;
20415;SDS011;10367;52.202;5.996;2022-08-01T03:19:50;17.73;;;16.10;;
20415;SDS011;10367;52.202;5.996;2022-08-01T03:22:21;16.33;;;14.83;;
20415;SDS011;10367;52.202;5.996;2022-08-01T03:24:52;19.17;;;17.27;;
20415;SDS011;10367;52.202;5.996;2022-08-01T03:27:23;17.13;;;15.63;;
20415;SDS011;10367;52.202;5.996;2022-08-01T03:29:54;16.73;;;15.33;;
20415;SDS011;10367;52.202;5.996;2022-08-01T03:32:25;17.70;;;16.17;;
20415;SDS011;10367;52.202;5.996;2022-08-01T03:34:56;18.60;;;16.87;;
20415;SDS011;10367;52.202;5.996;2022-08-01T03:37:25;16.03;;;14.83;;
20415;SDS011;10367;52.202;5.996;2022-08-01T03:39:57;19.73;;;17.70;;
20415;SDS011;10367;52.202;5.996;2022-08-01T03:42:31;19.83;;;17.77;;
20415;SDS011;10367;52.202;5.996;2022-08-01T03:45:02;17.23;;;15.63;;
20415;SDS011;10367;52.202;5.996;2022-08-01T03:47:41;19.83;;;17.70;;
20415;SDS011;10367;52.202;5.996;2022-08-01T03:50:13;22.87;;;19.33;;
20415;SDS011;10367;52.202;5.996;2022-08-01T03:52:43;21.13;;;18.03;;
20415;SDS011;10367;52.202;5.996;2022-08-01T03:55:14;21.23;;;19.00;;
20415;SDS011;10367;52.202;5.996;2022-08-01T03:57:44;20.73;;;18.30;;
20415;SDS011;10367;52.202;5.996;2022-08-01T04:00:14;21.10;;;18.83;;
20415;SDS011;10367;52.202;5.996;2022-08-01T04:02:47;20.10;;;17.97;;
20415;SDS011;10367;52.202;5.996;2022-08-01T04:05:16;23.27;;;19.27;;
20415;SDS011;10367;52.202;5.996;2022-08-01T04:07:46;17.67;;;16.07;;
20415;SDS011;10367;52.202;5.996;2022-08-01T04:10:17;21.97;;;19.67;;
20415;SDS011;10367;52.202;5.996;2022-08-01T04:12:45;19.20;;;17.37;;
20415;SDS011;10367;52.202;5.996;2022-08-01T04:15:14;25.67;;;20.03;;
20415;SDS011;10367;52.202;5.996;2022-08-01T04:17:43;21.23;;;19.07;;
20415;SDS011;10367;52.202;5.996;2022-08-01T04:20:13;21.77;;;18.13;;
20415;SDS011;10367;52.202;5.996;2022-08-01T04:22:42;20.67;;;18.60;;
20415;SDS011;10367;52.202;5.996;2022-08-01T04:25:12;20.87;;;18.60;;
20415;SDS011;10367;52.202;5.996;2022-08-01T04:27:45;19.83;;;17.77;;
20415;SDS011;10367;52.202;5.996;2022-08-01T04:30:19;24.23;;;18.33;;
20415;SDS011;10367;52.202;5.996;2022-08-01T04:32:50;18.67;;;17.07;;
20415;SDS011;10367;52.202;5.996;2022-08-01T04:35:22;20.73;;;18.50;;
20415;SDS011;10367;52.202;5.996;2022-08-01T04:38:15;16.77;;;15.37;;
20415;SDS011;10367;52.202;5.996;2022-08-01T04:40:50;18.90;;;17.27;;
20415;SDS011;10367;52.202;5.996;2022-08-01T04:43:20;17.20;;;15.90;;
20415;SDS011;10367;52.202;5.996;2022-08-01T04:45:50;18.83;;;17.27;;
20415;SDS011;10367;52.202;5.996;2022-08-01T04:48:19;19.33;;;17.40;;
20415;SDS011;10367;52.202;5.996;2022-08-01T04:50:50;22.30;;;18.57;;
20415;SDS011;10367;52.202;5.996;2022-08-01T04:53:19;19.27;;;17.23;;
20415;SDS011;10367;52.202;5.996;2022-08-01T04:55:49;16.97;;;15.37;;
20415;SDS011;10367;52.202;5.996;2022-08-01T04:58:18;15.60;;;14.40;;
20415;SDS011;10367;52.202;5.996;2022-08-01T05:00:47;18.50;;;16.33;;
20415;SDS011;10367;52.202;5.996;2022-08-01T05:03:16;15.13;;;14.13;;
20415;SDS011;10367;52.202;5.996;2022-08-01T05:05:44;16.87;;;15.30;;
20415;SDS011;10367;52.202;5.996;2022-08-01T05:08:14;16.23;;;14.97;;
20415;SDS011;10367;52.202;5.996;2022-08-01T05:10:43;15.70;;;14.57;;
20415;SDS011;10367;52.202;5.996;2022-08-01T05:13:12;16.50;;;15.10;;
20415;SDS011;10367;52.202;5.996;2022-08-01T05:15:40;17.53;;;16.00;;
20415;SDS011;10367;52.202;5.996;2022-08-01T05:18:09;17.40;;;15.83;;
20415;SDS011;10367;52.202;5.996;2022-08-01T05:20:40;16.53;;;14.87;;
20415;SDS011;10367;52.202;5.996;2022-08-01T05:23:09;16.13;;;14.73;;
20415;SDS011;10367;52.202;5.996;2022-08-01T05:25:59;18.03;;;16.23;;
20415;SDS011;10367;52.202;5.996;2022-08-01T05:28:27;18.43;;;16.53;;
20415;SDS011;10367;52.202;5.996;2022-08-01T05:30:56;24.87;;;19.50;;
20415;SDS011;10367;52.202;5.996;2022-08-01T05:33:25;18.90;;;16.90;;
20415;SDS011;10367;52.202;5.996;2022-08-01T05:35:54;17.53;;;15.83;;
20415;SDS011;10367;52.202;5.996;2022-08-01T05:38:22;18.57;;;16.57;;
20415;SDS011;10367;52.202;5.996;2022-08-01T05:40:51;18.03;;;16.30;;
20415;SDS011;10367;52.202;5.996;2022-08-01T05:43:25;15.90;;;14.30;;
20415;SDS011;10367;52.202;5.996;2022-08-01T05:45:55;22.63;;;18.43;;
20415;SDS011;10367;52.202;5.996;2022-08-01T05:48:25;22.07;;;17.43;;
20415;SDS011;10367;52.202;5.996;2022-08-01T05:50:53;18.77;;;16.77;;
20415;SDS011;10367;52.202;5.996;2022-08-01T05:53:24;18.07;;;16.17;;
20415;SDS011;10367;52.202;5.996;2022-08-01T05:55:54;19.10;;;17.20;;
20415;SDS011;10367;52.202;5.996;2022-08-01T05:58:23;18.17;;;16.50;;
20415;SDS011;10367;52.202;5.996;2022-08-01T06:00:53;22.57;;;18.57;;
20415;SDS011;10367;52.202;5.996;2022-08-01T06:03:21;18.67;;;16.93;;
20415;SDS011;10367;52.202;5.996;2022-08-01T06:05:50;17.57;;;16.23;;
20415;SDS011;10367;52.202;5.996;2022-08-01T06:08:19;17.50;;;16.13;;
20415;SDS011;10367;52.202;5.996;2022-08-01T06:10:48;16.43;;;15.33;;
20415;SDS011;10367;52.202;5.996;2022-08-01T06:13:17;16.60;;;15.47;;
20415;SDS011;10367;52.202;5.996;2022-08-01T06:15:47;17.57;;;16.17;;
20415;SDS011;10367;52.202;5.996;2022-08-01T06:18:16;16.37;;;15.07;;
20415;SDS011;10367;52.202;5.996;2022-08-01T06:20:45;18.33;;;16.67;;
20415;SDS011;10367;52.202;5.996;2022-08-01T06:23:14;17.40;;;15.93;;
20415;SDS011;10367;52.202;5.996;2022-08-01T06:25:58;19.07;;;17.27;;
20415;SDS011;10367;52.202;5.996;2022-08-01T06:28:27;16.67;;;15.30;;
20415;SDS011;10367;52.202;5.996;2022-08-01T06:30:57;19.17;;;17.47;;
20415;SDS011;10367;52.202;5.996;2022-08-01T06:33:27;16.90;;;15.57;;
20415;SDS011;10367;52.202;5.996;2022-08-01T06:35:56;20.13;;;18.13;;
20415;SDS011;10367;52.202;5.996;2022-08-01T06:38:24;20.03;;;18.23;;
20415;SDS011;10367;52.202;5.996;2022-08-01T06:40:53;19.10;;;17.30;;
20415;SDS011;10367;52.202;5.996;2022-08-01T06:43:22;19.13;;;17.53;;
20415;SDS011;10367;52.202;5.996;2022-08-01T06:45:51;19.73;;;18.03;;
20415;SDS011;10367;52.202;5.996;2022-08-01T06:48:21;18.00;;;16.47;;
20415;SDS011;10367;52.202;5.996;2022-08-01T06:50:50;20.10;;;18.23;;
20415;SDS011;10367;52.202;5.996;2022-08-01T06:53:35;21.80;;;19.67;;
20415;SDS011;10367;52.202;5.996;2022-08-01T06:56:04;22.23;;;19.73;;
20415;SDS011;10367;52.202;5.996;2022-08-01T06:58:35;20.77;;;18.77;;
20415;SDS011;10367;52.202;5.996;2022-08-01T07:01:04;19.53;;;17.63;;
20415;SDS011;10367;52.202;5.996;2022-08-01T07:03:35;20.97;;;18.97;;
20415;SDS011;10367;52.202;5.996;2022-08-01T07:06:21;19.50;;;17.60;;
20415;SDS011;10367;52.202;5.996;2022-08-01T07:08:53;21.87;;;19.67;;
20415;SDS011;10367;52.202;5.996;2022-08-01T07:11:23;20.20;;;18.40;;
20415;SDS011;10367;52.202;5.996;2022-08-01T07:13:52;17.97;;;16.53;;
20415;SDS011;10367;52.202;5.996;2022-08-01T07:16:20;18.93;;;17.30;;
20415;SDS011;10367;52.202;5.996;2022-08-01T07:18:50;19.37;;;17.67;;
20415;SDS011;10367;52.202;5.996;2022-08-01T07:21:19;19.70;;;18.13;;
20415;SDS011;10367;52.202;5.996;2022-08-01T07:24:07;20.80;;;18.80;;
20415;SDS011;10367;52.202;5.996;2022-08-01T07:26:40;20.30;;;18.43;;
20415;SDS011;10367;52.202;5.996;2022-08-01T07:29:21;21.07;;;18.93;;
20415;SDS011;10367;52.202;5.996;2022-08-01T07:31:50;19.40;;;17.67;;
20415;SDS011;10367;52.202;5.996;2022-08-01T07:34:21;19.37;;;17.80;;
20415;SDS011;10367;52.202;5.996;2022-08-01T07:36:51;20.63;;;18.80;;
20415;SDS011;10367;52.202;5.996;2022-08-01T07:39:20;19.37;;;17.43;;
20415;SDS011;10367;52.202;5.996;2022-08-01T07:41:49;21.17;;;19.17;;
20415;SDS011;10367;52.202;5.996;2022-08-01T07:44:33;20.93;;;18.87;;
20415;SDS011;10367;52.202;5.996;2022-08-01T07:47:03;19.33;;;17.50;;
20415;SDS011;10367;52.202;5.996;2022-08-01T07:49:33;23.67;;;20.33;;
20415;SDS011;10367;52.202;5.996;2022-08-01T07:52:06;20.57;;;18.40;;
20415;SDS011;10367;52.202;5.996;2022-08-01T07:54:35;20.30;;;18.53;;
20415;SDS011;10367;52.202;5.996;2022-08-01T07:57:04;21.53;;;19.33;;
20415;SDS011;10367;52.202;5.996;2022-08-01T07:59:33;20.33;;;18.37;;
20415;SDS011;10367;52.202;5.996;2022-08-01T08:02:02;26.27;;;20.53;;
20415;SDS011;10367;52.202;5.996;2022-08-01T08:04:32;22.37;;;18.40;;
20415;SDS011;10367;52.202;5.996;2022-08-01T08:07:02;23.47;;;19.57;;
20415;SDS011;10367;52.202;5.996;2022-08-01T08:09:31;23.17;;;19.33;;
20415;SDS011;10367;52.202;5.996;2022-08-01T08:12:04;20.87;;;18.17;;
20415;SDS011;10367;52.202;5.996;2022-08-01T08:14:34;19.93;;;17.53;;
20415;SDS011;10367;52.202;5.996;2022-08-01T08:17:03;20.83;;;18.60;;
20415;SDS011;10367;52.202;5.996;2022-08-01T08:19:33;21.27;;;19.13;;
20415;SDS011;10367;52.202;5.996;2022-08-01T08:22:05;26.70;;;20.10;;
20415;SDS011;10367;52.202;5.996;2022-08-01T08:24:35;23.90;;;18.17;;
20415;SDS011;10367;52.202;5.996;2022-08-01T08:27:12;21.50;;;19.20;;
20415;SDS011;10367;52.202;5.996;2022-08-01T08:29:42;23.00;;;17.97;;
20415;SDS011;10367;52.202;5.996;2022-08-01T08:32:11;24.50;;;18.87;;
20415;SDS011;10367;52.202;5.996;2022-08-01T08:34:41;20.07;;;16.73;;
20415;SDS011;10367;52.202;5.996;2022-08-01T08:37:10;23.93;;;20.57;;
20415;SDS011;10367;52.202;5.996;2022-08-01T08:39:39;22.80;;;19.13;;
20415;SDS011;10367;52.202;5.996;2022-08-01T08:42:08;20.73;;;18.40;;
20415;SDS011;10367;52.202;5.996;2022-08-01T08:44:40;20.73;;;18.53;;
20415;SDS011;10367;52.202;5.996;2022-08-01T08:47:10;22.00;;;19.60;;
20415;SDS011;10367;52.202;5.996;2022-08-01T08:49:48;19.03;;;17.10;;
20415;SDS011;10367;52.202;5.996;2022-08-01T08:52:18;24.27;;;19.03;;
20415;SDS011;10367;52.202;5.996;2022-08-01T08:54:48;23.17;;;18.03;;
20415;SDS011;10367;52.202;5.996;2022-08-01T08:57:18;20.97;;;18.80;;
20415;SDS011;10367;52.202;5.996;2022-08-01T08:59:48;20.10;;;17.90;;
20415;SDS011;10367;52.202;5.996;2022-08-01T09:02:19;20.80;;;18.77;;
20415;SDS011;10367;52.202;5.996;2022-08-01T09:04:50;22.00;;;19.93;;
20415;SDS011;10367;52.202;5.996;2022-08-01T09:07:19;21.77;;;18.17;;
20415;SDS011;10367;52.202;5.996;2022-08-01T09:09:50;20.17;;;18.07;;
20415;SDS011;10367;52.202;5.996;2022-08-01T09:12:19;20.90;;;18.70;;
20415;SDS011;10367;52.202;5.996;2022-08-01T09:14:48;20.03;;;18.10;;
20415;SDS011;10367;52.202;5.996;2022-08-01T09:17:20;19.30;;;17.47;;
20415;SDS011;10367;52.202;5.996;2022-08-01T09:19:51;19.93;;;17.90;;
20415;SDS011;10367;52.202;5.996;2022-08-01T09:22:23;19.97;;;18.20;;
20415;SDS011;10367;52.202;5.996;2022-08-01T09:24:59;19.40;;;17.57;;
20415;SDS011;10367;52.202;5.996;2022-08-01T09:27:30;22.80;;;20.43;;
20415;SDS011;10367;52.202;5.996;2022-08-01T09:30:10;23.30;;;19.73;;
20415;SDS011;10367;52.202;5.996;2022-08-01T09:32:54;20.20;;;18.17;;
20415;SDS011;10367;52.202;5.996;2022-08-01T09:35:26;20.47;;;18.33;;
20415;SDS011;10367;52.202;5.996;2022-08-01T09:38:12;21.07;;;18.37;;
20415;SDS011;10367;52.202;5.996;2022-08-01T09:40:46;20.73;;;18.60;;
20415;SDS011;10367;52.202;5.996;2022-08-01T09:43:17;20.57;;;18.67;;
20415;SDS011;10367;52.202;5.996;2022-08-01T09:45:47;20.17;;;18.57;;
20415;SDS011;10367;52.202;5.996;2022-08-01T09:48:19;19.67;;;18.07;;
20415;SDS011;10367;52.202;5.996;2022-08-01T09:50:57;21.03;;;19.20;;
20415;SDS011;10367;52.202;5.996;2022-08-01T09:53:41;23.07;;;19.93;;
20415;SDS011;10367;52.202;5.996;2022-08-01T09:56:17;20.27;;;18.53;;
20415;SDS011;10367;52.202;5.996;2022-08-01T09:58:54;21.77;;;19.67;;
20415;SDS011;10367;52.202;5.996;2022-08-01T10:01:28;22.93;;;20.10;;
20415;SDS011;10367;52.202;5.996;2022-08-01T10:04:10;21.37;;;19.50;;
20415;SDS011;10367;52.202;5.996;2022-08-01T10:06:43;22.00;;;19.90;;
20415;SDS011;10367;52.202;5.996;2022-08-01T10:09:25;20.27;;;18.47;;
20415;SDS011;10367;52.202;5.996;2022-08-01T10:12:06;20.90;;;18.90;;
20415;SDS011;10367;52.202;5.996;2022-08-01T10:14:42;21.63;;;19.90;;
20415;SDS011;10367;52.202;5.996;2022-08-01T10:17:16;20.07;;;18.57;;
20415;SDS011;10367;52.202;5.996;2022-08-01T10:19:48;20.87;;;19.20;;
20415;SDS011;10367;52.202;5.996;2022-08-01T10:22:26;21.27;;;19.63;;
20415;SDS011;10367;52.202;5.996;2022-08-01T10:25:02;21.97;;;19.80;;
20415;SDS011;10367;52.202;5.996;2022-08-01T10:27:33;21.10;;;19.00;;
20415;SDS011;10367;52.202;5.996;2022-08-01T10:30:06;21.50;;;19.57;;
20415;SDS011;10367;52.202;5.996;2022-08-01T10:32:49;20.53;;;18.93;;
20415;SDS011;10367;52.202;5.996;2022-08-01T10:35:21;20.73;;;19.10;;
20415;SDS011;10367;52.202;5.996;2022-08-01T10:38:11;19.97;;;18.23;;
20415;SDS011;10367;52.202;5.996;2022-08-01T10:40:40;21.13;;;19.53;;
20415;SDS011;10367;52.202;5.996;2022-08-01T10:43:10;23.33;;;21.10;;
20415;SDS011;10367;52.202;5.996;2022-08-01T10:45:47;21.90;;;19.97;;
20415;SDS011;10367;52.202;5.996;2022-08-01T10:48:18;22.00;;;19.97;;
20415;SDS011;10367;52.202;5.996;2022-08-01T10:50:56;19.57;;;18.13;;
20415;SDS011;10367;52.202;5.996;2022-08-01T10:53:28;21.47;;;19.57;;
20415;SDS011;10367;52.202;5.996;2022-08-01T10:56:08;23.17;;;21.17;;
20415;SDS011;10367;52.202;5.996;2022-08-01T10:58:42;21.13;;;19.53;;
20415;SDS011;10367;52.202;5.996;2022-08-01T11:01:15;23.23;;;21.27;;
20415;SDS011;10367;52.202;5.996;2022-08-01T11:03:56;22.60;;;20.70;;
20415;SDS011;10367;52.202;5.996;2022-08-01T11:06:44;22.20;;;20.00;;
20415;SDS011;10367;52.202;5.996;2022-08-01T11:09:24;21.03;;;19.27;;
20415;SDS011;10367;52.202;5.996;2022-08-01T11:12:04;23.13;;;21.33;;
20415;SDS011;10367;52.202;5.996;2022-08-01T11:18:00;21.30;;;19.77;;
20415;SDS011;10367;52.202;5.996;2022-08-01T11:20:32;23.77;;;21.63;;
20415;SDS011;10367;52.202;5.996;2022-08-01T11:23:16;23.60;;;21.17;;
20415;SDS011;10367;52.202;5.996;2022-08-01T11:29:15;21.07;;;19.43;;
20415;SDS011;10367;52.202;5.996;2022-08-01T11:31:47;22.43;;;20.53;;
20415;SDS011;10367;52.202;5.996;2022-08-01T11:34:17;21.00;;;19.27;;
20415;SDS011;10367;52.202;5.996;2022-08-01T11:36:46;21.17;;;19.43;;
20415;SDS011;10367;52.202;5.996;2022-08-01T11:39:25;21.07;;;19.47;;
20415;SDS011;10367;52.202;5.996;2022-08-01T11:41:56;22.30;;;20.57;;
20415;SDS011;10367;52.202;5.996;2022-08-01T11:44:49;21.60;;;19.67;;
20415;SDS011;10367;52.202;5.996;2022-08-01T11:47:30;21.17;;;19.37;;
20415;SDS011;10367;52.202;5.996;2022-08-01T11:50:30;24.57;;;22.27;;
20415;SDS011;10367;52.202;5.996;2022-08-01T11:53:00;23.70;;;21.77;;
20415;SDS011;10367;52.202;5.996;2022-08-01T11:55:31;23.90;;;21.87;;
20415;SDS011;10367;52.202;5.996;2022-08-01T11:58:03;23.30;;;21.43;;
20415;SDS011;10367;52.202;5.996;2022-08-01T12:00:51;24.20;;;22.10;;
20415;SDS011;10367;52.202;5.996;2022-08-01T12:03:23;23.30;;;21.20;;
20415;SDS011;10367;52.202;5.996;2022-08-01T12:05:59;23.13;;;21.20;;
20415;SDS011;10367;52.202;5.996;2022-08-01T12:08:29;21.63;;;20.03;;
20415;SDS011;10367;52.202;5.996;2022-08-01T12:11:00;22.43;;;20.70;;
20415;SDS011;10367;52.202;5.996;2022-08-01T12:13:40;21.30;;;19.83;;
20415;SDS011;10367;52.202;5.996;2022-08-01T12:16:10;21.70;;;19.87;;
20415;SDS011;10367;52.202;5.996;2022-08-01T12:18:40;21.93;;;20.40;;
20415;SDS011;10367;52.202;5.996;2022-08-01T12:21:10;21.33;;;19.73;;
20415;SDS011;10367;52.202;5.996;2022-08-01T12:23:39;23.50;;;21.50;;
20415;SDS011;10367;52.202;5.996;2022-08-01T12:26:08;24.70;;;22.33;;
20415;SDS011;10367;52.202;5.996;2022-08-01T12:28:58;22.63;;;20.83;;
20415;SDS011;10367;52.202;5.996;2022-08-01T12:31:32;22.67;;;20.77;;
20415;SDS011;10367;52.202;5.996;2022-08-01T12:36:56;22.50;;;20.27;;
20415;SDS011;10367;52.202;5.996;2022-08-01T12:39:29;21.70;;;20.07;;
20415;SDS011;10367;52.202;5.996;2022-08-01T12:42:06;22.90;;;20.70;;
20415;SDS011;10367;52.202;5.996;2022-08-01T12:44:38;21.60;;;20.00;;
20415;SDS011;10367;52.202;5.996;2022-08-01T12:47:08;22.70;;;20.73;;
20415;SDS011;10367;52.202;5.996;2022-08-01T12:49:38;22.33;;;20.60;;
20415;SDS011;10367;52.202;5.996;2022-08-01T12:52:11;22.57;;;21.00;;
20415;SDS011;10367;52.202;5.996;2022-08-01T12:57:28;22.47;;;20.70;;
20415;SDS011;10367;52.202;5.996;2022-08-01T13:00:09;22.13;;;20.40;;
20415;SDS011;10367;52.202;5.996;2022-08-01T13:02:40;23.63;;;21.30;;
20415;SDS011;10367;52.202;5.996;2022-08-01T13:05:09;23.83;;;21.70;;
20415;SDS011;10367;52.202;5.996;2022-08-01T13:07:40;23.70;;;21.50;;
20415;SDS011;10367;52.202;5.996;2022-08-01T13:10:14;23.70;;;20.67;;
20415;SDS011;10367;52.202;5.996;2022-08-01T13:12:52;21.70;;;20.00;;
20415;SDS011;10367;52.202;5.996;2022-08-01T13:15:25;22.20;;;20.27;;
20415;SDS011;10367;52.202;5.996;2022-08-01T13:17:58;20.50;;;19.07;;
20415;SDS011;10367;52.202;5.996;2022-08-01T13:20:29;21.80;;;20.23;;
20415;SDS011;10367;52.202;5.996;2022-08-01T13:23:11;22.87;;;20.87;;
20415;SDS011;10367;52.202;5.996;2022-08-01T13:26:02;22.50;;;20.63;;
20415;SDS011;10367;52.202;5.996;2022-08-01T13:28:31;21.00;;;19.70;;
20415;SDS011;10367;52.202;5.996;2022-08-01T13:31:02;22.27;;;20.57;;
20415;SDS011;10367;52.202;5.996;2022-08-01T13:33:42;22.40;;;20.70;;
20415;SDS011;10367;52.202;5.996;2022-08-01T13:36:20;22.47;;;20.73;;
20415;SDS011;10367;52.202;5.996;2022-08-01T13:38:54;21.10;;;19.73;;
20415;SDS011;10367;52.202;5.996;2022-08-01T13:41:40;21.67;;;19.87;;
20415;SDS011;10367;52.202;5.996;2022-08-01T13:44:09;22.37;;;20.67;;
20415;SDS011;10367;52.202;5.996;2022-08-01T13:46:40;20.73;;;19.33;;
20415;SDS011;10367;52.202;5.996;2022-08-01T13:49:15;22.20;;;20.50;;
20415;SDS011;10367;52.202;5.996;2022-08-01T13:51:44;21.80;;;20.37;;
20415;SDS011;10367;52.202;5.996;2022-08-01T13:54:13;22.83;;;20.93;;
20415;SDS011;10367;52.202;5.996;2022-08-01T13:56:42;22.70;;;21.00;;
20415;SDS011;10367;52.202;5.996;2022-08-01T13:59:10;22.03;;;20.43;;
20415;SDS011;10367;52.202;5.996;2022-08-01T14:01:40;22.50;;;20.80;;
20415;SDS011;10367;52.202;5.996;2022-08-01T14:04:09;22.47;;;20.87;;
20415;SDS011;10367;52.202;5.996;2022-08-01T14:06:38;21.97;;;20.37;;
20415;SDS011;10367;52.202;5.996;2022-08-01T14:09:08;22.27;;;20.50;;
20415;SDS011;10367;52.202;5.996;2022-08-01T14:11:43;22.53;;;20.70;;
20415;SDS011;10367;52.202;5.996;2022-08-01T14:14:12;22.87;;;21.17;;
20415;SDS011;10367;52.202;5.996;2022-08-01T14:16:43;23.07;;;21.33;;
20415;SDS011;10367;52.202;5.996;2022-08-01T14:19:12;22.37;;;20.73;;
20415;SDS011;10367;52.202;5.996;2022-08-01T14:21:45;23.87;;;22.07;;
20415;SDS011;10367;52.202;5.996;2022-08-01T14:24:13;26.07;;;23.83;;
20415;SDS011;10367;52.202;5.996;2022-08-01T14:26:42;23.50;;;21.70;;
20415;SDS011;10367;52.202;5.996;2022-08-01T14:29:10;23.70;;;21.93;;
20415;SDS011;10367;52.202;5.996;2022-08-01T14:31:39;22.37;;;20.67;;
20415;SDS011;10367;52.202;5.996;2022-08-01T14:34:09;21.80;;;20.37;;
20415;SDS011;10367;52.202;5.996;2022-08-01T14:36:39;22.73;;;21.07;;
20415;SDS011;10367;52.202;5.996;2022-08-01T14:39:09;22.83;;;21.00;;
20415;SDS011;10367;52.202;5.996;2022-08-01T14:41:40;23.17;;;21.30;;
20415;SDS011;10367;52.202;5.996;2022-08-01T14:44:12;22.93;;;20.87;;
20415;SDS011;10367;52.202;5.996;2022-08-01T14:46:41;21.80;;;20.23;;
20415;SDS011;10367;52.202;5.996;2022-08-01T14:49:25;24.77;;;22.70;;
20415;SDS011;10367;52.202;5.996;2022-08-01T14:51:54;22.20;;;20.70;;
20415;SDS011;10367;52.202;5.996;2022-08-01T14:54:23;20.97;;;19.57;;
20415;SDS011;10367;52.202;5.996;2022-08-01T14:56:55;22.47;;;20.87;;
20415;SDS011;10367;52.202;5.996;2022-08-01T14:59:24;24.50;;;22.27;;
20415;SDS011;10367;52.202;5.996;2022-08-01T15:01:52;22.20;;;20.70;;
20415;SDS011;10367;52.202;5.996;2022-08-01T15:04:21;22.43;;;20.83;;